Time;durP1;ratioP1;P1;durP2;ratioP2;P2;SDS_P1;SDS_P2;PMS_P1;PMS_P2;Temp;Humidity;BMP_temperature;BMP_pressure;BME280_temperature;BME280_humidity;BME280_pressure;Samples;Min_cycle;Max_cycle;Signal;HPM_P1;HPM_P2
2021/10/31 00:01:44;;;;;;;32.10;28.63;;;11.20;91.10;;;;;;4953342;29;20595;-47
2021/10/31 00:04:09;;;;;;;33.60;29.17;;;11.20;91.30;;;;;;4953939;29;20182;-52
2021/10/31 00:06:35;;;;;;;32.97;28.60;;;11.20;91.30;;;;;;4952685;29;20468;-47
2021/10/31 00:09:00;;;;;;;31.53;28.13;;;11.20;91.50;;;;;;4953649;29;20624;-47
2021/10/31 00:11:26;;;;;;;32.30;28.80;;;11.10;91.40;;;;;;4947808;28;20194;-48
2021/10/31 00:13:51;;;;;;;37.20;30.30;;;11.10;91.60;;;;;;4948502;28;20686;-50
2021/10/31 00:16:17;;;;;;;32.90;29.33;;;11.10;91.80;;;;;;4951779;28;20661;-50
2021/10/31 00:18:43;;;;;;;34.17;28.73;;;11.10;91.80;;;;;;4951648;29;20229;-49
2021/10/31 00:21:09;;;;;;;33.67;29.70;;;11.10;91.80;;;;;;4934375;29;20206;-48
2021/10/31 00:23:34;;;;;;;35.27;30.30;;;11.10;91.90;;;;;;4934486;29;20182;-46
2021/10/31 00:26:00;;;;;;;33.17;27.80;;;11.10;92.00;;;;;;4950768;29;20484;-48
2021/10/31 00:28:25;;;;;;;34.43;28.13;;;11.10;92.00;;;;;;4953232;29;20185;-51
2021/10/31 00:30:52;;;;;;;31.73;28.33;;;11.10;92.20;;;;;;4952164;29;20166;-49
2021/10/31 00:33:18;;;;;;;31.30;28.03;;;11.10;92.30;;;;;;4934348;29;20569;-48
2021/10/31 00:35:44;;;;;;;33.00;29.30;;;11.10;92.10;;;;;;4934099;29;20406;-47
2021/10/31 00:38:09;;;;;;;33.53;29.93;;;11.10;92.30;;;;;;4945737;29;20430;-51
2021/10/31 00:40:35;;;;;;;33.00;29.50;;;11.10;92.40;;;;;;4934086;29;20182;-48
2021/10/31 00:43:01;;;;;;;32.77;28.17;;;11.10;92.80;;;;;;4933837;29;20198;-47
2021/10/31 00:45:27;;;;;;;32.67;28.87;;;11.00;92.80;;;;;;4933942;29;20541;-52
2021/10/31 00:47:54;;;;;;;33.83;30.10;;;11.00;92.90;;;;;;4946631;29;20480;-51
2021/10/31 00:50:20;;;;;;;33.83;29.20;;;10.90;93.30;;;;;;4935681;29;20181;-48
2021/10/31 00:52:46;;;;;;;34.53;30.40;;;10.90;93.30;;;;;;4952368;29;20426;-48
2021/10/31 00:55:14;;;;;;;33.73;30.13;;;10.90;93.60;;;;;;4952867;29;20428;-50
2021/10/31 00:57:41;;;;;;;35.60;29.80;;;10.90;93.70;;;;;;4951650;29;20520;-50
2021/10/31 01:00:09;;;;;;;35.40;29.87;;;10.90;93.80;;;;;;4952862;29;20944;-48
2021/10/31 01:02:35;;;;;;;35.87;30.10;;;10.80;94.00;;;;;;4934946;29;20951;-49
2021/10/31 01:05:03;;;;;;;34.57;29.40;;;10.80;94.20;;;;;;4952716;29;20469;-50
2021/10/31 01:08:01;;;;;;;33.13;29.30;;;10.80;94.30;;;;;;4952843;29;20630;-49
2021/10/31 01:10:57;;;;;;;34.57;30.70;;;10.80;94.60;;;;;;4951976;29;20420;-53
2021/10/31 01:13:35;;;;;;;37.07;31.63;;;10.80;94.70;;;;;;4945342;28;20453;-49
2021/10/31 01:16:21;;;;;;;35.40;29.23;;;10.80;94.90;;;;;;4952739;28;20790;-49
2021/10/31 01:19:25;;;;;;;37.30;30.57;;;10.70;95.10;;;;;;4952666;29;20413;-46
2021/10/31 01:21:56;;;;;;;38.03;31.67;;;10.70;95.50;;;;;;4944753;28;20441;-48
2021/10/31 01:24:22;;;;;;;34.10;30.37;;;10.70;95.30;;;;;;4952642;29;20417;-51
2021/10/31 01:27:15;;;;;;;35.93;31.10;;;10.70;95.60;;;;;;4943028;29;20536;-49
2021/10/31 01:30:03;;;;;;;38.20;32.23;;;10.70;95.50;;;;;;4933204;29;20185;-47
2021/10/31 01:32:40;;;;;;;37.60;32.13;;;10.60;95.80;;;;;;4944311;28;20589;-49
2021/10/31 01:35:22;;;;;;;39.10;32.77;;;10.60;96.10;;;;;;4951155;29;20993;-48
2021/10/31 01:38:07;;;;;;;36.83;31.80;;;10.70;96.10;;;;;;4932236;29;20489;-51
2021/10/31 01:40:45;;;;;;;37.17;32.37;;;10.60;96.20;;;;;;4947530;29;20854;-51
2021/10/31 01:43:41;;;;;;;38.70;32.67;;;10.60;96.50;;;;;;4952148;29;20416;-51
2021/10/31 01:46:31;;;;;;;35.33;31.50;;;10.60;96.70;;;;;;4943922;29;20469;-51
2021/10/31 01:49:22;;;;;;;37.33;33.23;;;10.60;96.90;;;;;;4950643;29;20468;-51
2021/10/31 01:52:12;;;;;;;39.93;33.40;;;10.60;97.20;;;;;;4952167;29;20449;-49
2021/10/31 01:54:45;;;;;;;38.37;32.47;;;10.50;97.50;;;;;;4952078;29;20424;-48
2021/10/31 01:57:14;;;;;;;38.60;33.27;;;10.40;98.00;;;;;;4938965;29;20434;-51
2021/10/31 01:59:44;;;;;;;40.60;33.70;;;10.40;98.20;;;;;;4932666;29;20418;-48
2021/10/31 02:02:12;;;;;;;40.50;33.23;;;10.40;98.60;;;;;;4933196;29;20787;-48
2021/10/31 02:04:38;;;;;;;41.87;34.50;;;10.30;98.60;;;;;;4947283;29;20445;-49
2021/10/31 02:07:07;;;;;;;39.33;33.83;;;10.20;99.00;;;;;;4950923;29;20541;-48
2021/10/31 02:09:33;;;;;;;38.67;32.27;;;10.20;99.40;;;;;;4951612;29;20433;-50
2021/10/31 02:12:01;;;;;;;40.27;33.00;;;10.30;99.50;;;;;;4947206;29;20894;-49
2021/10/31 02:14:29;;;;;;;38.37;32.43;;;10.30;99.40;;;;;;4951154;28;20437;-53
2021/10/31 02:16:56;;;;;;;42.03;35.23;;;10.30;99.50;;;;;;4950053;28;20465;-49
2021/10/31 02:19:26;;;;;;;42.20;34.67;;;10.30;99.80;;;;;;4944696;29;20429;-50
2021/10/31 02:21:58;;;;;;;41.10;33.70;;;10.30;99.60;;;;;;4951180;29;20440;-51
2021/10/31 02:24:23;;;;;;;39.70;34.07;;;10.40;99.60;;;;;;4951336;29;20433;-50
2021/10/31 02:26:50;;;;;;;40.37;33.20;;;10.40;99.40;;;;;;4950311;29;20476;-50
2021/10/31 02:29:16;;;;;;;39.50;34.33;;;10.40;99.60;;;;;;4951202;29;20435;-48
2021/10/31 02:31:42;;;;;;;40.20;35.03;;;10.40;99.70;;;;;;4950650;29;20792;-47
2021/10/31 02:34:08;;;;;;;42.43;34.37;;;10.40;99.60;;;;;;4950446;29;20481;-47
2021/10/31 02:36:35;;;;;;;40.77;35.43;;;10.40;99.70;;;;;;4951265;29;20288;-51
2021/10/31 02:39:03;;;;;;;39.20;33.20;;;10.40;99.80;;;;;;4948600;29;20185;-48
2021/10/31 02:41:33;;;;;;;41.60;35.07;;;10.40;99.90;;;;;;4945631;29;20444;-45
2021/10/31 02:43:59;;;;;;;39.63;34.13;;;10.40;99.90;;;;;;4949729;29;20950;-49
2021/10/31 02:46:31;;;;;;;39.30;34.30;;;10.40;99.90;;;;;;4951049;29;20520;-48
2021/10/31 02:48:57;;;;;;;40.70;35.00;;;10.50;99.90;;;;;;4950166;29;20572;-48
2021/10/31 02:51:33;;;;;;;40.83;34.80;;;10.40;99.90;;;;;;4950962;29;20440;-51
2021/10/31 02:54:06;;;;;;;41.90;35.13;;;10.50;99.90;;;;;;4951229;29;20421;-47
2021/10/31 02:56:41;;;;;;;40.60;34.80;;;10.50;99.90;;;;;;4949960;29;21014;-52
2021/10/31 02:59:23;;;;;;;44.03;37.07;;;10.50;99.90;;;;;;4933929;29;20548;-49
2021/10/31 03:01:51;;;;;;;44.37;36.03;;;10.50;99.90;;;;;;4949550;29;21302;-50
2021/10/31 03:04:19;;;;;;;45.13;37.13;;;10.50;99.90;;;;;;4951032;29;20433;-51
2021/10/31 03:06:45;;;;;;;43.63;37.33;;;10.50;99.90;;;;;;4950225;29;20464;-47
2021/10/31 03:09:12;;;;;;;45.27;37.50;;;10.50;99.90;;;;;;4933231;29;20433;-50
2021/10/31 03:11:38;;;;;;;43.77;36.90;;;10.50;99.90;;;;;;4949717;29;20795;-52
2021/10/31 03:14:04;;;;;;;42.07;36.57;;;10.50;99.90;;;;;;4937869;29;20486;-50
2021/10/31 03:16:32;;;;;;;46.00;37.73;;;10.50;99.90;;;;;;4949809;29;20441;-48
2021/10/31 03:18:58;;;;;;;46.90;39.00;;;10.50;99.90;;;;;;4951239;29;20214;-52
2021/10/31 03:21:23;;;;;;;44.60;37.00;;;10.60;99.90;;;;;;4947266;29;20568;-50
2021/10/31 03:23:49;;;;;;;46.77;37.50;;;10.60;99.90;;;;;;4950738;29;20217;-53
2021/10/31 03:26:14;;;;;;;46.37;37.73;;;10.60;99.90;;;;;;4949743;29;20201;-47
2021/10/31 03:28:40;;;;;;;44.57;37.40;;;10.60;99.90;;;;;;4948348;29;20194;-48
2021/10/31 03:31:05;;;;;;;41.80;37.30;;;10.60;99.90;;;;;;4948784;29;20197;-47
2021/10/31 03:33:31;;;;;;;44.43;37.00;;;10.60;99.90;;;;;;4950711;29;20812;-46
2021/10/31 03:35:57;;;;;;;43.23;37.30;;;10.50;99.90;;;;;;4947905;29;20221;-46
2021/10/31 03:38:23;;;;;;;44.30;37.53;;;10.60;99.90;;;;;;4950668;29;20533;-51
2021/10/31 03:40:49;;;;;;;44.53;37.30;;;10.60;99.90;;;;;;4949817;29;20445;-48
2021/10/31 03:43:15;;;;;;;42.07;37.27;;;10.60;99.90;;;;;;4950563;29;20190;-52
2021/10/31 03:45:41;;;;;;;46.83;39.20;;;10.70;99.90;;;;;;4950376;28;20499;-51
2021/10/31 03:48:06;;;;;;;44.70;38.30;;;10.60;99.90;;;;;;4938850;29;20182;-47
2021/10/31 03:50:32;;;;;;;45.43;37.77;;;10.70;99.90;;;;;;4944137;29;20198;-48
2021/10/31 03:52:58;;;;;;;46.40;37.80;;;10.70;99.90;;;;;;4949902;29;20189;-51
2021/10/31 03:55:23;;;;;;;41.93;36.90;;;10.70;99.90;;;;;;4953225;29;20308;-52
2021/10/31 03:57:49;;;;;;;45.97;37.70;;;10.70;99.90;;;;;;4935942;29;20239;-51
2021/10/31 04:00:15;;;;;;;48.00;39.87;;;10.70;99.90;;;;;;4953249;29;20236;-50
2021/10/31 04:02:42;;;;;;;44.47;36.60;;;10.70;99.90;;;;;;4953030;29;20189;-49
2021/10/31 04:05:10;;;;;;;42.10;37.50;;;10.70;99.90;;;;;;4952780;29;20956;-55
2021/10/31 04:07:36;;;;;;;45.17;38.00;;;10.70;99.90;;;;;;4953350;29;21153;-51
2021/10/31 04:10:05;;;;;;;45.37;36.63;;;10.70;99.90;;;;;;4953108;29;20457;-49
2021/10/31 04:12:31;;;;;;;43.70;37.97;;;10.70;99.90;;;;;;4951569;29;20987;-52
2021/10/31 04:14:56;;;;;;;42.20;37.60;;;10.60;99.90;;;;;;4951457;29;20428;-50
2021/10/31 04:17:22;;;;;;;45.50;39.57;;;10.70;99.90;;;;;;4952909;29;20220;-49
2021/10/31 04:19:47;;;;;;;43.23;37.73;;;10.60;99.90;;;;;;4953091;29;20221;-51
2021/10/31 04:22:13;;;;;;;46.33;39.50;;;10.70;99.90;;;;;;4935385;29;20186;-52
2021/10/31 04:24:39;;;;;;;46.33;38.93;;;10.70;99.90;;;;;;4946991;29;20213;-55
2021/10/31 04:27:04;;;;;;;46.10;38.47;;;10.60;99.90;;;;;;4952675;29;20192;-52
2021/10/31 04:29:30;;;;;;;46.70;37.70;;;10.70;99.90;;;;;;4952910;29;20213;-47
2021/10/31 04:31:56;;;;;;;46.07;38.87;;;10.70;99.90;;;;;;4952876;29;20221;-49
2021/10/31 04:34:22;;;;;;;41.57;37.00;;;10.70;99.90;;;;;;4952430;29;20234;-56
2021/10/31 04:36:50;;;;;;;50.40;39.30;;;10.60;99.90;;;;;;4952518;29;20194;-53
2021/10/31 04:39:16;;;;;;;45.93;38.40;;;10.70;99.90;;;;;;4952503;29;20481;-52
2021/10/31 04:41:45;;;;;;;45.17;40.10;;;10.60;99.90;;;;;;4952477;29;20429;-50
2021/10/31 04:44:10;;;;;;;46.60;38.37;;;10.60;99.90;;;;;;4952383;29;20456;-51
2021/10/31 04:46:36;;;;;;;44.57;38.10;;;10.70;99.90;;;;;;4952274;29;20504;-47
2021/10/31 04:49:02;;;;;;;45.43;37.70;;;10.70;99.90;;;;;;4952561;29;20190;-51
2021/10/31 04:51:27;;;;;;;46.87;39.93;;;10.70;99.90;;;;;;4952486;29;20198;-49
2021/10/31 04:53:53;;;;;;;45.30;38.03;;;10.70;99.90;;;;;;4952339;29;20433;-53
2021/10/31 04:56:22;;;;;;;45.23;37.47;;;10.70;99.90;;;;;;4951353;28;20304;-48
2021/10/31 04:58:52;;;;;;;47.93;38.93;;;10.60;99.90;;;;;;4952138;29;20190;-52
2021/10/31 05:01:18;;;;;;;46.03;38.90;;;10.60;99.90;;;;;;4939457;29;20940;-53
2021/10/31 05:03:44;;;;;;;46.00;37.40;;;10.50;99.90;;;;;;4935016;29;20443;-54
2021/10/31 05:06:11;;;;;;;46.37;38.53;;;10.50;99.90;;;;;;4951835;29;20465;-53
2021/10/31 05:08:36;;;;;;;46.87;39.93;;;10.40;99.90;;;;;;4951990;29;20182;-49
2021/10/31 05:11:03;;;;;;;47.20;38.93;;;10.50;99.90;;;;;;4952338;29;20425;-48
2021/10/31 05:13:28;;;;;;;47.57;39.20;;;10.50;99.90;;;;;;4950914;29;20178;-50
2021/10/31 05:15:54;;;;;;;43.90;37.37;;;10.40;99.90;;;;;;4941213;28;20493;-50
2021/10/31 05:18:19;;;;;;;45.87;38.37;;;10.50;99.90;;;;;;4953343;28;20197;-48
2021/10/31 05:20:45;;;;;;;46.33;40.00;;;10.50;99.90;;;;;;4952560;29;20319;-45
2021/10/31 05:23:11;;;;;;;47.40;37.83;;;10.50;99.90;;;;;;4952404;29;20679;-46
2021/10/31 05:25:36;;;;;;;45.27;37.23;;;10.50;99.90;;;;;;4942731;29;20775;-49
2021/10/31 05:28:02;;;;;;;46.33;39.17;;;10.50;99.90;;;;;;4952304;29;20186;-48
2021/10/31 05:30:27;;;;;;;46.80;38.57;;;10.50;99.90;;;;;;4948223;29;20673;-50
2021/10/31 05:32:53;;;;;;;45.30;38.33;;;10.60;99.90;;;;;;4952058;29;20293;-48
2021/10/31 05:35:19;;;;;;;45.00;37.50;;;10.60;99.90;;;;;;4951468;29;20276;-50
2021/10/31 05:37:46;;;;;;;45.53;37.90;;;10.60;99.90;;;;;;4951641;29;20280;-49
2021/10/31 05:40:15;;;;;;;46.90;38.33;;;10.60;99.90;;;;;;4951393;29;20210;-50
2021/10/31 05:42:41;;;;;;;49.37;40.00;;;10.70;99.90;;;;;;4951710;29;20496;-46
2021/10/31 05:45:08;;;;;;;47.40;38.87;;;10.70;99.90;;;;;;4951028;29;20818;-47
2021/10/31 05:47:41;;;;;;;44.97;39.27;;;10.70;99.90;;;;;;4952033;29;20433;-50
2021/10/31 05:50:10;;;;;;;44.10;39.33;;;10.60;99.90;;;;;;4943885;29;20438;-47
2021/10/31 05:52:36;;;;;;;49.57;39.83;;;10.60;99.90;;;;;;4934788;29;20528;-49
2021/10/31 05:55:04;;;;;;;45.83;39.20;;;10.60;99.90;;;;;;4945396;29;20549;-48
2021/10/31 05:57:30;;;;;;;43.47;38.53;;;10.50;99.90;;;;;;4919139;29;20810;-51
2021/10/31 05:59:56;;;;;;;50.27;39.63;;;10.50;99.90;;;;;;4951675;29;20514;-51
2021/10/31 06:02:22;;;;;;;47.50;40.40;;;10.40;99.90;;;;;;4951008;29;20192;-48
2021/10/31 06:04:48;;;;;;;46.20;38.70;;;10.50;99.90;;;;;;4951566;29;20177;-47
2021/10/31 06:07:13;;;;;;;50.53;39.87;;;10.50;99.90;;;;;;4951850;28;20416;-47
2021/10/31 06:09:40;;;;;;;46.90;37.13;;;10.50;99.90;;;;;;4951244;29;20429;-50
2021/10/31 06:12:07;;;;;;;47.27;39.67;;;10.50;99.90;;;;;;4951831;29;20162;-49
2021/10/31 06:14:35;;;;;;;45.60;39.10;;;10.60;99.90;;;;;;4949516;28;20460;-50
2021/10/31 06:17:01;;;;;;;43.87;38.67;;;10.60;99.90;;;;;;4953576;28;20444;-47
2021/10/31 06:19:27;;;;;;;47.50;39.47;;;10.60;99.90;;;;;;4950907;29;20445;-52
2021/10/31 06:21:53;;;;;;;45.47;38.27;;;10.60;99.90;;;;;;4951628;29;21822;-50
2021/10/31 06:24:18;;;;;;;48.53;40.87;;;10.60;99.90;;;;;;4949734;29;20205;-47
2021/10/31 06:26:44;;;;;;;48.00;39.23;;;10.70;99.90;;;;;;4951492;29;20224;-48
2021/10/31 06:29:12;;;;;;;44.60;37.73;;;10.70;99.90;;;;;;4950764;29;20189;-46
2021/10/31 06:31:38;;;;;;;47.27;39.73;;;10.70;99.90;;;;;;4951661;29;20197;-50
2021/10/31 06:34:03;;;;;;;47.17;38.80;;;10.60;99.90;;;;;;4950211;29;20990;-49
2021/10/31 06:36:29;;;;;;;47.03;39.57;;;10.70;99.90;;;;;;4951379;29;20196;-47
2021/10/31 06:38:55;;;;;;;49.13;39.27;;;10.70;99.90;;;;;;4950652;29;20568;-49
2021/10/31 06:41:21;;;;;;;46.63;38.73;;;10.70;99.90;;;;;;4951256;29;20675;-47
2021/10/31 06:43:47;;;;;;;46.33;39.40;;;10.80;99.90;;;;;;4950435;29;20448;-53
2021/10/31 06:46:12;;;;;;;44.50;36.83;;;10.70;99.90;;;;;;4951586;29;20255;-51
2021/10/31 06:48:38;;;;;;;48.00;40.17;;;10.70;99.90;;;;;;4950303;29;20795;-49
2021/10/31 06:51:03;;;;;;;44.67;37.30;;;10.80;99.90;;;;;;4951030;29;20241;-52
2021/10/31 06:53:29;;;;;;;44.50;37.40;;;10.80;99.90;;;;;;4949628;29;20189;-47
2021/10/31 06:55:55;;;;;;;45.83;38.70;;;10.80;99.90;;;;;;4951178;29;20534;-52
2021/10/31 06:58:20;;;;;;;45.17;39.40;;;10.80;99.90;;;;;;4950473;29;20233;-51
2021/10/31 07:00:46;;;;;;;45.77;37.60;;;10.80;99.90;;;;;;4951326;29;20828;-49
2021/10/31 07:03:11;;;;;;;43.20;36.97;;;10.80;99.90;;;;;;4949118;29;20196;-53
2021/10/31 07:05:37;;;;;;;44.07;37.80;;;10.80;99.90;;;;;;4946787;29;20222;-51
2021/10/31 07:08:03;;;;;;;44.60;38.53;;;10.70;99.90;;;;;;4950372;29;20193;-48
2021/10/31 07:10:28;;;;;;;46.60;39.13;;;10.80;99.90;;;;;;4950292;29;20194;-50
2021/10/31 07:12:54;;;;;;;44.80;36.90;;;10.70;99.90;;;;;;4951036;29;20182;-51
2021/10/31 07:15:19;;;;;;;43.60;37.50;;;10.80;99.90;;;;;;4951636;28;20202;-52
2021/10/31 07:17:45;;;;;;;43.10;37.07;;;10.90;99.90;;;;;;4951050;29;20519;-50
2021/10/31 07:20:13;;;;;;;48.33;38.40;;;11.00;99.90;;;;;;4948893;28;20186;-53
2021/10/31 07:22:40;;;;;;;46.57;39.43;;;10.90;99.90;;;;;;4953882;29;20225;-47
2021/10/31 07:25:07;;;;;;;44.40;38.90;;;11.00;99.90;;;;;;4953010;29;20509;-51
2021/10/31 07:27:33;;;;;;;42.70;36.13;;;11.10;99.90;;;;;;4933613;29;20438;-50
2021/10/31 07:29:58;;;;;;;45.20;37.10;;;11.30;99.90;;;;;;4951419;29;20838;-53
2021/10/31 07:32:25;;;;;;;45.10;37.43;;;11.40;99.90;;;;;;4953943;29;20189;-51
2021/10/31 07:34:50;;;;;;;44.10;36.47;;;11.50;99.90;;;;;;4954212;29;20288;-49
2021/10/31 07:37:16;;;;;;;44.23;37.47;;;11.60;99.70;;;;;;4953577;29;20944;-52
2021/10/31 07:39:43;;;;;;;47.70;39.87;;;11.60;99.80;;;;;;4954334;29;20193;-48
2021/10/31 07:42:09;;;;;;;44.03;38.37;;;11.70;99.50;;;;;;4953352;29;20267;-49
2021/10/31 07:44:35;;;;;;;44.10;38.20;;;11.70;99.30;;;;;;4953991;29;20963;-50
2021/10/31 07:47:00;;;;;;;42.00;37.47;;;11.80;99.30;;;;;;4953266;29;20488;-54
2021/10/31 07:49:26;;;;;;;41.57;37.17;;;12.00;99.10;;;;;;4954226;29;20185;-48
2021/10/31 07:51:52;;;;;;;46.50;38.37;;;12.10;98.60;;;;;;4954171;29;20234;-47
2021/10/31 07:54:23;;;;;;;42.17;36.77;;;12.10;98.10;;;;;;4952953;29;20708;-47
2021/10/31 07:56:50;;;;;;;44.20;37.73;;;12.10;97.90;;;;;;4954244;29;20971;-48
2021/10/31 07:59:17;;;;;;;42.97;37.03;;;12.20;98.00;;;;;;4937351;29;20434;-52
2021/10/31 08:01:42;;;;;;;43.17;36.40;;;12.40;98.00;;;;;;4933891;29;20489;-49
2021/10/31 08:04:08;;;;;;;41.13;36.67;;;12.80;96.80;;;;;;4933796;29;20445;-50
2021/10/31 08:06:34;;;;;;;41.87;37.47;;;13.20;95.70;;;;;;4934557;29;20214;-50
2021/10/31 08:09:00;;;;;;;41.90;37.20;;;13.50;94.40;;;;;;4946523;29;20417;-48
2021/10/31 08:11:25;;;;;;;40.00;35.60;;;13.80;93.70;;;;;;4953798;29;20245;-53
2021/10/31 08:13:51;;;;;;;40.73;36.33;;;14.10;93.10;;;;;;4950005;29;20193;-51
2021/10/31 08:16:16;;;;;;;39.90;35.60;;;14.40;92.00;;;;;;4932824;29;20210;-50
2021/10/31 08:18:42;;;;;;;40.70;36.33;;;14.80;91.10;;;;;;4953286;28;20554;-53
2021/10/31 08:21:11;;;;;;;40.43;36.23;;;15.00;90.20;;;;;;4953702;29;20197;-50
2021/10/31 08:23:38;;;;;;;40.60;36.07;;;15.20;89.10;;;;;;4952619;29;20663;-50
2021/10/31 08:26:04;;;;;;;41.53;36.73;;;15.40;88.80;;;;;;4953672;29;20464;-50
2021/10/31 08:28:32;;;;;;;40.30;36.20;;;15.40;86.90;;;;;;4932641;29;20445;-48
2021/10/31 08:30:59;;;;;;;41.23;37.03;;;15.50;87.10;;;;;;4953411;28;20166;-51
2021/10/31 08:33:37;;;;;;;42.87;38.27;;;15.50;86.00;;;;;;4952704;29;20944;-50
2021/10/31 08:36:05;;;;;;;40.03;35.93;;;15.70;85.80;;;;;;4953213;29;20430;-53
2021/10/31 08:38:31;;;;;;;39.90;35.90;;;16.20;83.70;;;;;;4949547;29;20441;-48
2021/10/31 08:40:57;;;;;;;40.53;36.33;;;16.50;81.70;;;;;;4953212;29;20772;-48
2021/10/31 08:43:23;;;;;;;40.53;36.27;;;16.80;79.80;;;;;;4951624;29;20186;-48
2021/10/31 08:45:50;;;;;;;39.47;35.47;;;16.80;77.90;;;;;;4953167;29;20492;-48
2021/10/31 08:48:17;;;;;;;39.17;35.40;;;16.70;77.70;;;;;;4953116;29;20432;-50
2021/10/31 08:50:44;;;;;;;39.37;35.37;;;16.80;78.10;;;;;;4948731;29;20434;-47
2021/10/31 08:53:11;;;;;;;40.37;36.07;;;16.80;76.60;;;;;;4936901;29;20792;-47
2021/10/31 08:55:39;;;;;;;39.20;35.20;;;17.10;75.50;;;;;;4933352;29;20510;-48
2021/10/31 08:58:06;;;;;;;39.17;35.10;;;17.40;74.50;;;;;;4947695;29;20494;-46
2021/10/31 09:00:32;;;;;;;37.80;34.10;;;18.00;73.20;;;;;;4952198;29;20439;-50
2021/10/31 09:02:59;;;;;;;37.50;33.70;;;18.20;70.80;;;;;;4950797;29;20427;-50
2021/10/31 09:05:26;;;;;;;37.80;34.10;;;18.30;70.50;;;;;;4952028;29;20884;-46
2021/10/31 09:07:51;;;;;;;37.37;33.57;;;18.50;69.80;;;;;;4952874;29;20401;-48
2021/10/31 09:10:17;;;;;;;38.27;34.50;;;18.90;67.60;;;;;;4945743;29;20858;-48
2021/10/31 09:12:43;;;;;;;36.90;33.23;;;19.20;66.60;;;;;;4936075;29;20636;-52
2021/10/31 09:15:08;;;;;;;38.00;34.30;;;19.30;65.10;;;;;;4947345;28;20193;-50
2021/10/31 09:17:34;;;;;;;38.43;34.63;;;19.60;64.20;;;;;;4953013;28;20601;-50
2021/10/31 09:20:00;;;;;;;37.87;34.27;;;19.80;62.50;;;;;;4952312;29;20197;-51
2021/10/31 09:22:25;;;;;;;37.97;34.27;;;20.00;61.30;;;;;;4950043;29;20663;-50
2021/10/31 09:24:51;;;;;;;37.40;33.80;;;20.00;60.50;;;;;;4952225;29;20197;-51
2021/10/31 09:27:19;;;;;;;36.47;32.83;;;20.00;60.00;;;;;;4952393;29;20208;-49
2021/10/31 09:29:45;;;;;;;36.97;33.40;;;19.60;60.10;;;;;;4951851;29;20264;-50
2021/10/31 09:32:10;;;;;;;36.17;32.67;;;19.70;60.40;;;;;;4952186;29;20433;-48
2021/10/31 09:34:36;;;;;;;37.80;34.20;;;19.90;59.40;;;;;;4951297;29;20229;-51
2021/10/31 09:37:03;;;;;;;35.83;32.43;;;20.10;58.60;;;;;;4951994;29;20668;-48
2021/10/31 09:39:28;;;;;;;34.43;31.33;;;20.20;57.90;;;;;;4951337;29;20205;-50
2021/10/31 09:41:54;;;;;;;36.47;32.90;;;20.30;58.70;;;;;;4933288;28;20774;-52
2021/10/31 09:44:23;;;;;;;34.80;31.40;;;20.10;58.30;;;;;;4950230;29;20619;-50
2021/10/31 09:46:50;;;;;;;36.70;33.30;;;19.90;58.40;;;;;;4951567;29;20307;-50
2021/10/31 09:49:16;;;;;;;38.10;34.30;;;20.20;57.70;;;;;;4950524;29;20924;-53
2021/10/31 09:51:44;;;;;;;36.80;33.30;;;20.20;57.40;;;;;;4951721;29;21188;-52
2021/10/31 09:54:11;;;;;;;34.17;30.90;;;20.00;57.30;;;;;;4951116;29;20449;-47
2021/10/31 09:56:39;;;;;;;37.40;33.80;;;20.00;58.20;;;;;;4934274;29;20512;-49
2021/10/31 09:59:10;;;;;;;34.07;30.87;;;19.80;57.80;;;;;;4950898;29;20476;-50
2021/10/31 10:04:53;;;;;;;34.13;30.90;;;20.00;57.70;;;;;;4951093;29;20567;-50
2021/10/31 10:07:20;;;;;;;34.70;31.37;;;20.10;58.00;;;;;;4951554;29;20443;-50
2021/10/31 10:09:51;;;;;;;36.50;33.10;;;20.50;57.80;;;;;;4950461;29;20441;-51
2021/10/31 10:12:19;;;;;;;35.37;31.97;;;20.70;56.60;;;;;;4951583;29;20455;-48
2021/10/31 10:15:02;;;;;;;34.70;31.50;;;21.10;55.50;;;;;;4950567;29;20450;-50
2021/10/31 10:17:42;;;;;;;34.30;31.10;;;21.50;54.40;;;;;;4940120;29;20496;-48
2021/10/31 10:20:11;;;;;;;32.17;29.20;;;21.50;54.40;;;;;;4951493;29;20422;-47
2021/10/31 10:22:38;;;;;;;34.90;31.67;;;21.70;53.60;;;;;;4950427;29;20495;-49
2021/10/31 10:25:04;;;;;;;33.33;30.27;;;21.80;52.40;;;;;;4951254;29;20418;-48
2021/10/31 10:27:35;;;;;;;32.37;29.40;;;21.90;52.70;;;;;;4945208;29;21094;-50
2021/10/31 10:30:13;;;;;;;34.20;31.10;;;22.00;53.10;;;;;;4946708;29;20489;-49
2021/10/31 10:32:59;;;;;;;34.43;31.27;;;21.50;52.10;;;;;;4951293;29;20538;-48
2021/10/31 10:35:27;;;;;;;33.20;30.20;;;21.40;52.80;;;;;;4950420;29;20528;-51
2021/10/31 10:37:54;;;;;;;34.67;31.40;;;21.00;53.20;;;;;;4945380;29;20441;-49
2021/10/31 10:40:26;;;;;;;35.70;32.37;;;20.60;54.20;;;;;;4950646;29;20438;-47
2021/10/31 10:42:55;;;;;;;32.47;29.40;;;20.30;54.30;;;;;;4939397;28;20437;-51
2021/10/31 10:45:23;;;;;;;33.43;30.23;;;19.50;56.70;;;;;;4940280;28;20477;-50
2021/10/31 10:48:02;;;;;;;32.80;29.60;;;19.80;57.20;;;;;;4951704;28;20439;-52
2021/10/31 10:50:39;;;;;;;35.13;31.73;;;19.50;56.00;;;;;;4949077;28;20468;-48
2021/10/31 10:53:19;;;;;;;34.73;31.43;;;18.70;58.10;;;;;;4943971;29;20851;-49
2021/10/31 10:55:45;;;;;;;36.80;33.30;;;18.40;59.10;;;;;;4952339;29;20429;-53
2021/10/31 10:58:15;;;;;;;36.07;32.50;;;18.20;59.50;;;;;;4949634;29;20451;-50
2021/10/31 11:00:49;;;;;;;35.23;31.83;;;18.30;60.30;;;;;;4951201;29;20305;-50
2021/10/31 11:03:30;;;;;;;34.90;31.30;;;18.60;59.80;;;;;;4951254;28;20488;-50
2021/10/31 11:06:04;;;;;;;33.03;29.53;;;19.10;58.90;;;;;;4944071;28;20484;-50
2021/10/31 11:08:30;;;;;;;33.70;30.50;;;19.60;58.00;;;;;;4952063;28;20958;-52
2021/10/31 11:10:59;;;;;;;32.10;28.97;;;19.70;57.80;;;;;;4947764;28;20438;-50
2021/10/31 11:13:28;;;;;;;33.10;29.90;;;20.50;56.80;;;;;;4940818;28;20224;-53
2021/10/31 11:15:56;;;;;;;33.17;30.07;;;20.90;55.40;;;;;;4937923;29;20449;-50
2021/10/31 11:18:21;;;;;;;32.80;29.70;;;20.60;54.20;;;;;;4945199;29;20471;-51
2021/10/31 11:20:47;;;;;;;33.73;30.53;;;21.10;54.70;;;;;;4936882;29;20532;-52
2021/10/31 11:23:16;;;;;;;32.70;29.70;;;20.60;54.80;;;;;;4936970;28;20211;-53
2021/10/31 11:25:44;;;;;;;32.77;29.47;;;20.80;55.10;;;;;;4934549;29;20250;-50
2021/10/31 11:28:13;;;;;;;32.13;29.03;;;21.00;54.70;;;;;;4936991;29;20441;-47
2021/10/31 11:30:41;;;;;;;33.57;30.47;;;21.30;54.20;;;;;;4934809;29;20442;-50
2021/10/31 11:33:08;;;;;;;31.83;28.73;;;21.40;54.10;;;;;;4933964;29;20474;-49
2021/10/31 11:35:34;;;;;;;32.43;29.40;;;21.00;53.70;;;;;;4934038;29;20436;-48
2021/10/31 11:38:20;;;;;;;32.37;29.27;;;20.90;53.90;;;;;;4937584;28;20974;-52
2021/10/31 11:40:56;;;;;;;33.53;30.50;;;20.90;54.50;;;;;;4932671;29;20489;-54
2021/10/31 11:43:25;;;;;;;32.83;29.87;;;21.10;53.90;;;;;;4935341;29;20434;-52
2021/10/31 11:45:53;;;;;;;31.40;28.60;;;21.30;53.40;;;;;;4940123;28;20469;-48
2021/10/31 11:48:29;;;;;;;30.80;28.00;;;21.60;52.50;;;;;;4935280;29;20946;-48
2021/10/31 11:51:06;;;;;;;31.33;28.47;;;21.90;52.10;;;;;;4941585;29;20928;-53
2021/10/31 11:53:39;;;;;;;34.13;30.83;;;22.00;51.70;;;;;;4948219;28;20494;-51
2021/10/31 11:56:20;;;;;;;31.97;28.90;;;21.90;52.10;;;;;;4948069;28;20479;-50
2021/10/31 11:58:55;;;;;;;29.77;27.10;;;21.80;50.60;;;;;;4950318;29;21004;-46
2021/10/31 12:01:32;;;;;;;31.90;28.93;;;21.80;51.60;;;;;;4949185;29;20444;-49
2021/10/31 12:03:59;;;;;;;31.70;28.87;;;21.90;50.50;;;;;;4949744;29;20504;-49
2021/10/31 12:06:25;;;;;;;31.50;28.70;;;21.80;50.70;;;;;;4949390;28;20825;-50
2021/10/31 12:08:59;;;;;;;31.63;28.53;;;21.50;50.70;;;;;;4944476;29;20443;-51
2021/10/31 12:11:30;;;;;;;30.60;27.90;;;21.00;51.80;;;;;;4933748;29;20187;-48
2021/10/31 12:14:01;;;;;;;31.43;28.50;;;21.20;52.40;;;;;;4942642;28;20455;-50
2021/10/31 12:16:27;;;;;;;31.17;28.27;;;21.10;51.70;;;;;;4950677;29;20434;-48
2021/10/31 12:19:10;;;;;;;32.10;29.00;;;21.10;52.00;;;;;;4950612;29;20512;-47
2021/10/31 12:21:38;;;;;;;31.07;28.17;;;21.00;51.50;;;;;;4950470;29;20413;-47
2021/10/31 12:24:11;;;;;;;30.50;27.60;;;21.00;52.10;;;;;;4950396;29;20802;-52
2021/10/31 12:26:44;;;;;;;31.23;28.23;;;21.40;52.20;;;;;;4948003;29;20469;-48
2021/10/31 12:29:17;;;;;;;31.20;28.30;;;21.20;51.30;;;;;;4944678;29;20441;-52
2021/10/31 12:31:56;;;;;;;31.87;28.93;;;20.80;51.20;;;;;;4946084;28;21203;-50
2021/10/31 12:34:25;;;;;;;31.60;28.60;;;20.50;52.50;;;;;;4942306;29;21032;-47
2021/10/31 12:36:53;;;;;;;31.07;28.27;;;20.60;52.50;;;;;;4944654;29;20430;-51
2021/10/31 12:39:24;;;;;;;32.00;29.03;;;20.70;52.50;;;;;;4944006;28;20524;-49